Time;durP1;ratioP1;P1;durP2;ratioP2;P2;SDS_P1;SDS_P2;PMS_P1;PMS_P2;Temp;Humidity;BMP_temperature;BMP_pressure;BME280_temperature;BME280_humidity;BME280_pressure;Samples;Min_cycle;Max_cycle;Signal;HPM_P1;HPM_P2
2023/04/23 00:00:25;;;;;;;56.10;34.33;;;8.00;99.90;;;;;;5059501;28;20503;-68
2023/04/23 00:02:53;;;;;;;54.33;33.42;;;7.90;99.90;;;;;;5004683;28;233818;-69
2023/04/23 00:05:19;;;;;;;52.45;32.45;;;7.90;99.90;;;;;;5054805;28;20495;-68
2023/04/23 00:07:46;;;;;;;57.03;32.63;;;7.90;99.90;;;;;;4989845;28;213863;-68
2023/04/23 00:10:12;;;;;;;56.65;32.80;;;7.90;99.90;;;;;;5052222;28;20060;-68
2023/04/23 00:12:40;;;;;;;54.85;33.90;;;7.90;99.90;;;;;;4975814;28;251077;-68
2023/04/23 00:15:06;;;;;;;54.03;32.30;;;7.90;99.90;;;;;;5051746;28;20048;-68
2023/04/23 00:17:33;;;;;;;57.90;32.40;;;7.90;99.90;;;;;;4985749;28;213342;-68
2023/04/23 00:19:59;;;;;;;56.33;33.67;;;7.90;99.90;;;;;;5053601;28;21664;-68
2023/04/23 00:22:25;;;;;;;49.95;31.15;;;7.90;99.90;;;;;;4988727;28;214356;-68
2023/04/23 00:24:51;;;;;;;56.60;32.83;;;7.90;99.90;;;;;;5045126;28;20499;-68
2023/04/23 00:27:17;;;;;;;51.30;31.98;;;7.80;99.90;;;;;;4991449;28;215406;-69
2023/04/23 00:29:45;;;;;;;51.75;30.17;;;7.80;99.90;;;;;;5048059;28;20049;-68
2023/04/23 00:32:11;;;;;;;51.13;31.05;;;7.80;99.90;;;;;;5005524;28;207742;-67
2023/04/23 00:34:37;;;;;;;53.10;32.58;;;7.80;99.90;;;;;;5045588;28;20059;-68
2023/04/23 00:37:05;;;;;;;51.72;31.30;;;7.70;99.90;;;;;;4982950;28;214573;-68
2023/04/23 00:39:31;;;;;;;51.85;31.25;;;7.80;99.90;;;;;;5052048;28;20068;-68
2023/04/23 00:42:00;;;;;;;52.45;32.88;;;7.80;99.90;;;;;;5002756;28;220100;-68
2023/04/23 00:44:26;;;;;;;51.72;32.17;;;7.70;99.90;;;;;;5066663;28;20060;-68
2023/04/23 00:46:53;;;;;;;51.25;32.35;;;7.70;99.90;;;;;;5009350;28;221935;-69
2023/04/23 00:49:21;;;;;;;52.58;32.00;;;7.70;99.90;;;;;;5074284;28;20138;-69
2023/04/23 00:51:47;;;;;;;53.55;32.35;;;7.70;99.90;;;;;;5015945;28;216448;-68
2023/04/23 00:54:13;;;;;;;56.92;32.72;;;7.70;99.90;;;;;;5060574;28;20078;-67
2023/04/23 00:56:39;;;;;;;52.17;31.35;;;7.70;99.90;;;;;;4994028;28;213757;-68
2023/04/23 00:59:05;;;;;;;53.45;31.77;;;7.60;99.90;;;;;;5049656;28;20110;-67
2023/04/23 01:01:32;;;;;;;57.88;33.75;;;7.60;99.90;;;;;;4994281;28;209219;-67
2023/04/23 01:03:58;;;;;;;53.70;32.78;;;7.60;99.90;;;;;;5039441;28;20403;-68
2023/04/23 01:06:27;;;;;;;55.92;33.35;;;7.60;99.90;;;;;;5007462;28;218406;-67
2023/04/23 01:08:53;;;;;;;56.45;33.67;;;7.60;99.90;;;;;;5052492;28;21542;-68
2023/04/23 01:11:19;;;;;;;64.68;34.50;;;7.60;99.90;;;;;;4986786;28;209760;-68
2023/04/23 01:13:45;;;;;;;59.35;35.40;;;7.60;99.90;;;;;;5030450;28;20064;-67
2023/04/23 01:16:12;;;;;;;65.17;35.57;;;7.50;99.90;;;;;;5004682;28;211686;-68
2023/04/23 01:18:39;;;;;;;56.60;34.15;;;7.50;99.90;;;;;;5044714;28;20048;-68
2023/04/23 01:21:06;;;;;;;61.97;34.95;;;7.50;99.90;;;;;;5022039;28;217177;-67
2023/04/23 01:23:32;;;;;;;60.35;35.17;;;7.50;99.90;;;;;;5044306;28;265889;-67
2023/04/23 01:25:58;;;;;;;60.28;35.75;;;7.50;99.90;;;;;;5063705;28;20052;-68
2023/04/23 01:28:24;;;;;;;61.53;36.63;;;7.50;99.90;;;;;;5018593;28;206402;-68
2023/04/23 01:30:51;;;;;;;62.75;37.53;;;7.50;99.90;;;;;;5057420;28;20048;-68
2023/04/23 01:33:18;;;;;;;61.58;36.85;;;7.50;99.90;;;;;;5015629;28;210264;-67
2023/04/23 01:35:44;;;;;;;65.70;38.30;;;7.50;99.90;;;;;;5070229;28;20053;-68
2023/04/23 01:38:12;;;;;;;73.75;41.65;;;7.50;99.90;;;;;;5032107;28;223275;-68
2023/04/23 01:40:39;;;;;;;66.90;39.70;;;7.50;99.90;;;;;;5071845;28;20052;-67
2023/04/23 01:43:06;;;;;;;74.10;40.13;;;7.50;99.90;;;;;;5008744;28;213842;-68
2023/04/23 01:45:32;;;;;;;74.13;42.38;;;7.50;99.90;;;;;;5068142;28;20053;-67
2023/04/23 01:47:59;;;;;;;75.93;44.35;;;7.50;99.90;;;;;;5021669;28;211426;-67
2023/04/23 01:50:28;;;;;;;78.80;44.05;;;7.50;99.90;;;;;;5070956;28;20057;-67
2023/04/23 01:52:54;;;;;;;78.30;44.13;;;7.50;99.90;;;;;;5017576;28;216537;-67
2023/04/23 01:55:20;;;;;;;85.18;44.67;;;7.50;99.90;;;;;;5074525;28;20506;-67
2023/04/23 01:57:47;;;;;;;86.95;46.72;;;7.50;99.90;;;;;;4995903;28;210442;-68
2023/04/23 02:00:14;;;;;;;83.22;45.70;;;7.50;99.90;;;;;;5068598;28;20052;-67
2023/04/23 02:02:41;;;;;;;97.65;48.40;;;7.50;99.90;;;;;;5003261;27;214627;-67
2023/04/23 02:05:18;;;;;;;91.63;46.90;;;7.50;99.90;;;;;;5061876;28;20067;-67
2023/04/23 02:07:46;;;;;;;83.50;44.35;;;7.50;99.90;;;;;;5003217;28;216125;-67
2023/04/23 02:10:13;;;;;;;92.70;47.63;;;7.40;99.90;;;;;;5054403;28;20067;-67
2023/04/23 02:12:39;;;;;;;86.45;44.42;;;7.40;99.90;;;;;;4982567;28;207151;-67
2023/04/23 02:15:08;;;;;;;91.03;45.83;;;7.30;99.90;;;;;;5048964;28;20056;-67
2023/04/23 02:17:34;;;;;;;83.53;46.22;;;7.30;99.90;;;;;;4972664;28;210519;-67
2023/04/23 02:20:01;;;;;;;98.32;48.50;;;7.30;99.90;;;;;;5046665;28;20450;-68
2023/04/23 02:22:27;;;;;;;94.15;45.50;;;7.30;99.90;;;;;;4991109;28;228067;-67
2023/04/23 02:24:54;;;;;;;94.53;47.25;;;7.20;99.90;;;;;;5051625;28;20064;-70
2023/04/23 02:27:20;;;;;;;96.90;46.30;;;7.20;99.90;;;;;;5013879;28;209356;-67
2023/04/23 02:29:47;;;;;;;91.47;45.50;;;7.20;99.90;;;;;;5063134;28;20056;-67
2023/04/23 02:32:14;;;;;;;96.32;47.83;;;7.10;99.90;;;;;;5027590;28;206784;-68
2023/04/23 02:34:40;;;;;;;91.93;48.28;;;7.10;99.90;;;;;;5074320;27;20044;-67
2023/04/23 02:37:06;;;;;;;100.30;48.55;;;7.10;99.90;;;;;;5012511;28;209948;-68
2023/04/23 02:39:32;;;;;;;94.63;48.38;;;7.20;99.90;;;;;;5074498;28;20549;-68
2023/04/23 02:41:58;;;;;;;102.18;49.70;;;7.20;99.90;;;;;;5014218;28;206853;-67
2023/04/23 02:44:25;;;;;;;104.13;51.70;;;7.20;99.90;;;;;;5067524;28;20053;-68
2023/04/23 02:46:51;;;;;;;97.90;49.25;;;7.20;99.90;;;;;;5012807;28;214026;-68
2023/04/23 02:49:19;;;;;;;105.13;51.83;;;7.20;99.90;;;;;;5075649;28;20063;-69
2023/04/23 02:51:45;;;;;;;100.00;49.97;;;7.20;99.90;;;;;;5016522;28;210471;-68
2023/04/23 02:54:12;;;;;;;105.93;51.38;;;7.20;99.90;;;;;;5053905;28;20047;-67
2023/04/23 02:56:38;;;;;;;105.22;51.58;;;7.20;99.90;;;;;;5010701;28;209720;-67
2023/04/23 02:59:05;;;;;;;103.53;50.15;;;7.20;99.90;;;;;;5065667;28;20082;-69
2023/04/23 03:01:31;;;;;;;71.70;42.78;;;7.20;99.90;;;;;;5019491;28;225650;-66
2023/04/23 03:03:58;;;;;;;92.60;48.85;;;7.20;99.90;;;;;;5077134;28;20525;-67
2023/04/23 03:06:25;;;;;;;84.40;44.80;;;7.20;99.90;;;;;;5019008;28;209530;-68
2023/04/23 03:08:51;;;;;;;97.55;50.38;;;7.20;99.90;;;;;;5077191;28;20048;-68
2023/04/23 03:11:17;;;;;;;126.93;55.78;;;7.20;99.90;;;;;;5014640;28;219652;-68
2023/04/23 03:13:43;;;;;;;153.95;57.30;;;7.20;99.90;;;;;;5080403;28;20055;-67
2023/04/23 03:16:10;;;;;;;184.90;59.35;;;7.20;99.90;;;;;;5019912;28;217193;-68
2023/04/23 03:18:36;;;;;;;118.72;55.30;;;7.10;99.90;;;;;;5079852;28;20059;-68
2023/04/23 03:21:02;;;;;;;219.20;59.03;;;7.10;99.90;;;;;;5067374;28;232628;-67
2023/04/23 03:23:28;;;;;;;137.82;59.47;;;7.10;99.90;;;;;;5019717;28;206876;-68
2023/04/23 03:25:54;;;;;;;135.93;58.78;;;7.10;99.90;;;;;;5077701;28;20052;-68
2023/04/23 03:28:20;;;;;;;116.68;56.35;;;7.10;99.90;;;;;;5022995;28;221392;-67
2023/04/23 03:30:47;;;;;;;112.63;54.45;;;7.00;99.90;;;;;;5058719;28;20072;-67
2023/04/23 03:33:13;;;;;;;95.18;51.10;;;7.00;99.90;;;;;;5002786;28;209437;-67
2023/04/23 03:35:39;;;;;;;94.82;49.20;;;6.90;99.90;;;;;;5075695;28;20056;-67
2023/04/23 03:38:05;;;;;;;106.53;53.30;;;6.90;99.90;;;;;;5024729;28;222538;-68
2023/04/23 03:40:31;;;;;;;100.20;51.75;;;6.80;99.90;;;;;;5083657;28;20055;-68
2023/04/23 03:42:57;;;;;;;116.28;54.60;;;6.80;99.90;;;;;;5015410;28;210220;-68
2023/04/23 03:45:24;;;;;;;128.05;58.00;;;6.90;99.90;;;;;;5081524;28;20052;-68
2023/04/23 03:47:50;;;;;;;134.43;59.03;;;6.90;99.90;;;;;;5003568;28;113900;-70
2023/04/23 03:50:16;;;;;;;120.47;56.67;;;6.90;99.90;;;;;;5072527;28;20047;-67
2023/04/23 03:52:42;;;;;;;153.77;60.33;;;6.90;99.90;;;;;;5013148;28;209612;-68
2023/04/23 03:55:09;;;;;;;117.28;56.45;;;7.00;99.90;;;;;;5066706;28;20051;-68
2023/04/23 03:57:36;;;;;;;126.35;57.47;;;7.10;99.90;;;;;;4984645;28;212296;-68
2023/04/23 04:00:03;;;;;;;123.57;58.20;;;7.10;99.90;;;;;;5072535;28;20070;-69
2023/04/23 04:02:30;;;;;;;143.52;60.78;;;7.10;99.90;;;;;;5016904;28;212202;-67
2023/04/23 04:04:56;;;;;;;130.55;60.65;;;7.20;99.90;;;;;;5070340;28;20052;-68
2023/04/23 04:07:22;;;;;;;144.23;61.22;;;7.20;99.90;;;;;;5007510;28;210306;-68
2023/04/23 04:09:48;;;;;;;150.27;60.90;;;7.20;99.90;;;;;;5045951;28;20059;-69
2023/04/23 04:12:15;;;;;;;219.75;62.88;;;7.30;99.90;;;;;;4995848;28;214162;-68
2023/04/23 04:14:42;;;;;;;147.52;59.92;;;7.30;99.90;;;;;;5048653;28;20075;-69
2023/04/23 04:17:08;;;;;;;133.32;59.65;;;7.30;99.90;;;;;;4999868;28;207764;-68
2023/04/23 04:19:34;;;;;;;163.65;62.80;;;7.30;99.90;;;;;;5060240;28;20056;-67
2023/04/23 04:22:02;;;;;;;164.07;61.92;;;7.30;99.90;;;;;;4997829;28;214032;-69
2023/04/23 04:24:31;;;;;;;127.88;58.42;;;7.30;99.90;;;;;;5060741;28;20063;-68
2023/04/23 04:26:58;;;;;;;166.35;60.10;;;7.40;99.90;;;;;;4999034;28;212371;-68
2023/04/23 04:29:25;;;;;;;169.27;58.70;;;7.30;99.90;;;;;;5058181;28;20415;-68
2023/04/23 04:31:52;;;;;;;133.48;58.63;;;7.40;99.90;;;;;;5001157;28;222668;-68
2023/04/23 04:34:19;;;;;;;117.57;55.55;;;7.40;99.90;;;;;;5068666;28;20057;-68
2023/04/23 04:36:46;;;;;;;236.93;60.28;;;7.40;99.90;;;;;;5003235;28;210981;-68
2023/04/23 04:39:16;;;;;;;149.07;57.20;;;7.50;99.90;;;;;;5055457;28;20495;-68
2023/04/23 04:41:43;;;;;;;255.37;61.40;;;7.50;99.90;;;;;;5001046;28;218611;-68
2023/04/23 04:44:09;;;;;;;159.82;58.50;;;7.50;99.90;;;;;;5058741;28;20048;-67
2023/04/23 04:46:39;;;;;;;155.00;56.05;;;7.50;99.90;;;;;;5002819;28;216995;-68
2023/04/23 04:49:09;;;;;;;142.88;57.10;;;7.50;99.90;;;;;;5066067;28;20056;-68
2023/04/23 04:51:36;;;;;;;259.70;60.63;;;7.50;99.90;;;;;;4996912;28;211156;-67
2023/04/23 04:54:03;;;;;;;142.82;57.75;;;7.60;99.90;;;;;;5044349;28;20820;-67
2023/04/23 04:56:29;;;;;;;185.35;62.63;;;7.60;99.90;;;;;;4987242;28;212718;-67
2023/04/23 04:58:55;;;;;;;189.85;65.32;;;7.70;99.90;;;;;;5061542;28;20064;-67
2023/04/23 05:01:25;;;;;;;274.38;64.43;;;7.70;99.90;;;;;;5025879;28;212786;-68
2023/04/23 05:03:52;;;;;;;161.82;59.58;;;7.70;99.90;;;;;;5077601;28;20406;-67
2023/04/23 05:06:18;;;;;;;191.07;65.37;;;7.80;99.90;;;;;;5017105;28;212476;-67
2023/04/23 05:08:47;;;;;;;191.93;63.80;;;7.80;99.90;;;;;;5067958;28;20049;-68
2023/04/23 05:11:15;;;;;;;179.23;65.10;;;7.90;99.90;;;;;;4997057;28;213480;-69
2023/04/23 05:13:41;;;;;;;151.40;63.40;;;7.90;99.90;;;;;;5054269;28;20059;-70
2023/04/23 05:16:07;;;;;;;210.60;66.97;;;8.00;99.90;;;;;;5031644;28;212847;-69
2023/04/23 05:18:33;;;;;;;138.52;62.35;;;8.00;99.90;;;;;;5071062;28;20052;-68
2023/04/23 05:20:59;;;;;;;132.50;62.38;;;8.10;99.90;;;;;;5076392;28;20051;-69
2023/04/23 05:23:25;;;;;;;132.85;63.13;;;8.10;99.90;;;;;;4999539;28;213086;-68
2023/04/23 05:25:54;;;;;;;137.70;64.95;;;8.10;99.90;;;;;;5072500;28;20418;-69
2023/04/23 05:28:20;;;;;;;144.07;65.05;;;8.20;99.90;;;;;;5010317;28;210679;-68
2023/04/23 05:30:47;;;;;;;143.40;66.68;;;8.20;99.90;;;;;;5076893;28;20064;-69
2023/04/23 05:33:13;;;;;;;117.10;60.70;;;8.30;99.90;;;;;;5038228;28;211775;-69
2023/04/23 05:35:39;;;;;;;135.25;64.55;;;8.30;99.90;;;;;;5080648;28;20044;-68
2023/04/23 05:38:05;;;;;;;129.20;63.60;;;8.40;99.90;;;;;;5013125;28;208858;-69
2023/04/23 05:40:31;;;;;;;124.18;63.33;;;8.50;99.90;;;;;;5077472;28;20063;-69
2023/04/23 05:42:58;;;;;;;117.60;61.35;;;8.60;99.90;;;;;;5015123;28;212134;-69
2023/04/23 05:45:25;;;;;;;124.78;64.25;;;8.50;99.90;;;;;;5077056;28;20047;-68
2023/04/23 05:47:51;;;;;;;124.57;62.65;;;8.60;99.90;;;;;;5003818;28;209696;-66
2023/04/23 05:50:18;;;;;;;128.90;65.70;;;8.60;99.90;;;;;;5070894;28;20532;-67
2023/04/23 05:52:44;;;;;;;122.80;63.75;;;8.70;99.90;;;;;;5030373;28;209467;-68
2023/04/23 05:55:10;;;;;;;122.90;61.90;;;8.80;99.90;;;;;;5084121;28;20417;-68
2023/04/23 05:57:37;;;;;;;107.10;58.60;;;9.00;99.90;;;;;;4988923;28;215373;-70
2023/04/23 06:00:08;;;;;;;104.63;56.83;;;9.00;99.90;;;;;;5083485;28;20048;-68
2023/04/23 06:02:34;;;;;;;100.90;58.00;;;9.10;99.90;;;;;;5015396;28;210005;-68
2023/04/23 06:05:00;;;;;;;94.88;55.97;;;9.20;99.90;;;;;;5080720;28;20529;-67
2023/04/23 06:07:26;;;;;;;102.68;57.33;;;9.30;99.90;;;;;;5020086;28;216711;-68
2023/04/23 06:09:53;;;;;;;94.90;56.17;;;9.30;99.90;;;;;;5085205;28;20080;-68
2023/04/23 06:12:19;;;;;;;97.03;56.75;;;9.40;99.90;;;;;;5022688;28;212385;-68
2023/04/23 06:14:45;;;;;;;99.10;59.10;;;9.50;99.90;;;;;;5078769;28;20056;-68
2023/04/23 06:17:11;;;;;;;97.88;57.42;;;9.70;99.90;;;;;;5023558;28;211182;-70
2023/04/23 06:19:37;;;;;;;93.20;55.05;;;9.90;99.90;;;;;;5059575;28;20060;-67
2023/04/23 06:22:03;;;;;;;79.40;50.85;;;10.10;99.90;;;;;;5009643;28;218946;-68
2023/04/23 06:24:30;;;;;;;76.28;48.65;;;10.30;99.90;;;;;;5052612;28;20085;-67
2023/04/23 06:26:56;;;;;;;74.82;50.85;;;10.30;99.90;;;;;;4999083;28;219785;-69
2023/04/23 06:29:22;;;;;;;74.88;49.25;;;10.50;99.90;;;;;;5057520;28;20083;-68
2023/04/23 06:31:48;;;;;;;65.63;47.83;;;10.80;99.90;;;;;;5007816;28;208803;-68
2023/04/23 06:34:14;;;;;;;65.90;47.10;;;10.90;99.90;;;;;;5072262;28;20055;-68
2023/04/23 06:36:42;;;;;;;63.58;45.45;;;11.20;99.90;;;;;;4997829;28;215412;-68
2023/04/23 06:39:09;;;;;;;58.85;42.83;;;11.40;99.90;;;;;;5060187;28;20063;-67
2023/04/23 06:41:35;;;;;;;59.92;43.95;;;11.70;99.90;;;;;;5000558;28;213464;-69
2023/04/23 06:44:01;;;;;;;55.88;41.03;;;11.90;99.90;;;;;;5061804;28;20051;-68
2023/04/23 06:46:27;;;;;;;54.35;40.58;;;12.10;99.90;;;;;;5022636;28;209598;-69
2023/04/23 06:48:53;;;;;;;52.67;39.67;;;12.20;99.90;;;;;;5081570;28;20059;-69
2023/04/23 06:51:20;;;;;;;54.10;40.50;;;12.30;99.90;;;;;;5021653;28;210504;-69
2023/04/23 06:53:46;;;;;;;52.10;39.63;;;12.30;99.90;;;;;;5079422;28;20039;-69
2023/04/23 06:56:12;;;;;;;47.70;37.00;;;12.30;99.90;;;;;;5008689;28;209829;-68
2023/04/23 06:58:40;;;;;;;49.53;37.25;;;12.40;99.90;;;;;;5079377;28;20059;-68
2023/04/23 07:01:06;;;;;;;51.55;39.30;;;12.00;99.90;;;;;;5047158;28;213721;-68
2023/04/23 07:03:32;;;;;;;49.78;37.17;;;12.30;99.90;;;;;;5025195;28;20269;-67
2023/04/23 07:05:59;;;;;;;47.42;36.67;;;12.40;99.90;;;;;;5077340;28;20500;-68
2023/04/23 07:08:25;;;;;;;48.40;36.85;;;12.40;99.90;;;;;;5019619;28;212512;-69
2023/04/23 07:10:52;;;;;;;46.67;36.85;;;12.50;99.90;;;;;;5080109;28;20052;-69
2023/04/23 07:13:18;;;;;;;47.63;36.90;;;12.70;99.90;;;;;;4994893;28;205448;-68
2023/04/23 07:15:45;;;;;;;49.10;37.67;;;12.90;99.90;;;;;;5072337;28;20395;-69
2023/04/23 07:18:11;;;;;;;46.35;35.80;;;13.00;99.90;;;;;;4993016;28;213375;-68
2023/04/23 07:20:37;;;;;;;44.42;35.53;;;12.90;99.90;;;;;;5073991;28;20668;-68
2023/04/23 07:23:04;;;;;;;46.17;34.65;;;13.30;99.90;;;;;;5031615;28;212440;-67
2023/04/23 07:25:31;;;;;;;42.55;33.25;;;13.20;99.90;;;;;;5075268;28;20064;-68
2023/04/23 07:27:57;;;;;;;43.35;33.95;;;13.10;99.90;;;;;;5021151;28;215619;-69
2023/04/23 07:30:25;;;;;;;41.85;31.30;;;13.20;99.90;;;;;;5075306;28;20478;-68
2023/04/23 07:32:52;;;;;;;44.42;33.42;;;13.20;99.90;;;;;;4999649;28;210736;-68
2023/04/23 07:35:18;;;;;;;40.88;31.65;;;13.00;99.90;;;;;;5076675;28;20055;-68
2023/04/23 07:37:44;;;;;;;38.83;30.50;;;13.20;99.90;;;;;;5025008;28;209672;-68
2023/04/23 07:40:10;;;;;;;38.50;31.27;;;13.20;99.90;;;;;;5074860;28;20056;-69
2023/04/23 07:42:36;;;;;;;40.13;31.10;;;13.70;99.90;;;;;;5013875;28;206173;-69
2023/04/23 07:45:03;;;;;;;37.17;29.55;;;13.70;99.90;;;;;;5072148;28;20502;-68
2023/04/23 07:47:29;;;;;;;40.55;29.45;;;13.80;99.90;;;;;;5028739;28;211407;-68
2023/04/23 07:49:55;;;;;;;37.20;29.27;;;14.00;99.90;;;;;;5084124;28;20710;-69
2023/04/23 07:52:21;;;;;;;39.33;29.60;;;14.00;99.90;;;;;;5010217;28;209294;-70
2023/04/23 07:54:47;;;;;;;35.50;27.55;;;13.90;99.90;;;;;;5064810;28;20070;-68
2023/04/23 07:57:15;;;;;;;36.08;28.27;;;14.00;99.90;;;;;;5011759;28;214099;-71
2023/04/23 07:59:41;;;;;;;35.58;27.65;;;14.30;99.90;;;;;;5082086;28;20064;-69
2023/04/23 08:02:07;;;;;;;33.53;27.23;;;14.50;99.90;;;;;;5007691;28;213877;-70
2023/04/23 08:04:33;;;;;;;35.28;27.92;;;14.70;99.90;;;;;;5067774;28;20052;-69
2023/04/23 08:06:59;;;;;;;35.25;26.85;;;15.10;99.90;;;;;;5028888;28;214856;-69
2023/04/23 08:09:25;;;;;;;31.88;25.73;;;15.50;99.90;;;;;;5080045;28;20830;-68
2023/04/23 08:11:52;;;;;;;33.22;26.88;;;15.50;99.90;;;;;;5028153;28;212216;-70
2023/04/23 08:14:18;;;;;;;31.33;25.00;;;15.30;99.90;;;;;;5080053;28;20059;-69
2023/04/23 08:16:44;;;;;;;31.65;25.02;;;15.10;99.90;;;;;;5013190;28;215372;-68
2023/04/23 08:19:10;;;;;;;32.40;25.48;;;15.00;99.90;;;;;;5059820;28;20549;-69
2023/04/23 08:21:36;;;;;;;31.38;25.15;;;15.10;99.90;;;;;;5022075;28;213568;-70
2023/04/23 08:24:03;;;;;;;32.13;24.60;;;15.10;99.90;;;;;;5077546;28;20056;-70
2023/04/23 08:26:30;;;;;;;29.10;23.40;;;15.40;99.90;;;;;;5016567;28;213001;-70
2023/04/23 08:28:56;;;;;;;28.08;21.50;;;15.60;99.90;;;;;;5088865;28;20068;-69
2023/04/23 08:31:22;;;;;;;26.77;21.60;;;15.70;99.90;;;;;;5015672;28;212757;-69
2023/04/23 08:33:48;;;;;;;27.58;21.60;;;15.90;99.90;;;;;;5064454;28;20529;-70
2023/04/23 08:36:14;;;;;;;26.83;20.48;;;16.30;99.90;;;;;;5023215;28;214169;-69
2023/04/23 08:38:41;;;;;;;25.05;20.35;;;16.60;99.90;;;;;;5086599;28;20055;-69
2023/04/23 08:41:10;;;;;;;29.13;22.20;;;16.30;99.90;;;;;;5034417;28;215390;-69
2023/04/23 08:43:51;;;;;;;26.15;20.58;;;16.40;99.90;;;;;;5029318;28;20490;-69
2023/04/23 08:46:18;;;;;;;24.25;18.42;;;16.70;99.90;;;;;;5028025;28;218877;-69
2023/04/23 08:48:46;;;;;;;24.85;19.50;;;16.80;99.90;;;;;;5038639;28;20577;-70
2023/04/23 08:51:17;;;;;;;26.43;18.80;;;16.60;99.90;;;;;;4996060;28;212656;-70
2023/04/23 08:53:43;;;;;;;;;;;16.70;99.90;;;;;;5059319;28;20056;-69
2023/04/23 08:56:12;;;;;;;21.98;17.05;;;17.00;99.90;;;;;;5001660;28;209184;-68
2023/04/23 08:58:40;;;;;;;22.23;16.90;;;17.50;99.90;;;;;;5066589;28;100204;-70
2023/04/23 09:01:07;;;;;;;20.64;15.94;;;17.80;99.90;;;;;;5051247;28;226169;-66
2023/04/23 09:03:34;;;;;;;21.15;15.60;;;18.10;99.90;;;;;;5032932;28;20036;-68
2023/04/23 09:06:00;;;;;;;20.70;15.98;;;17.60;99.90;;;;;;5077673;28;20048;-68
2023/04/23 09:08:27;;;;;;;22.42;15.57;;;17.40;99.90;;;;;;5015171;28;208232;-69
2023/04/23 09:10:58;;;;;;;19.75;13.77;;;17.50;99.90;;;;;;5073059;28;20714;-67
2023/04/23 09:13:24;;;;;;;20.33;13.95;;;18.00;99.90;;;;;;4984763;28;213916;-67
2023/04/23 09:15:50;;;;;;;20.35;13.82;;;17.80;99.90;;;;;;5055090;28;20036;-68
2023/04/23 09:18:19;;;;;;;19.48;13.45;;;18.10;99.90;;;;;;5011044;28;216599;-69
2023/04/23 09:20:45;;;;;;;15.15;10.95;;;18.50;99.90;;;;;;5074272;28;20048;-69
2023/04/23 09:23:14;;;;;;;17.58;11.57;;;18.00;99.90;;;;;;5006510;28;221085;-69
2023/04/23 09:25:40;;;;;;;19.23;12.07;;;17.70;99.90;;;;;;5071444;28;20075;-68
2023/04/23 09:28:09;;;;;;;18.70;11.50;;;18.00;99.90;;;;;;5018237;28;210469;-69
2023/04/23 09:30:47;;;;;;;16.15;9.90;;;17.30;99.90;;;;;;5073629;28;20063;-69
2023/04/23 09:33:15;;;;;;;16.05;9.90;;;16.60;99.90;;;;;;5016014;28;207472;-69
2023/04/23 09:35:42;;;;;;;17.65;10.27;;;16.80;99.90;;;;;;5074243;28;20048;-69
2023/04/23 09:38:09;;;;;;;17.67;12.05;;;16.90;99.90;;;;;;5022639;28;215919;-68
2023/04/23 09:40:36;;;;;;;17.52;10.10;;;16.90;99.90;;;;;;5071233;28;20407;-68
2023/04/23 09:43:04;;;;;;;15.55;9.32;;;17.10;99.90;;;;;;5011830;28;212377;-67
2023/04/23 09:45:31;;;;;;;16.55;9.38;;;18.00;99.90;;;;;;5078843;28;20048;-67
2023/04/23 09:47:58;;;;;;;16.27;8.98;;;18.80;99.90;;;;;;5008162;28;221426;-68
2023/04/23 09:50:39;;;;;;;16.83;8.68;;;19.40;99.90;;;;;;5067413;28;20052;-69
2023/04/23 09:53:06;;;;;;;18.05;8.38;;;19.70;99.90;;;;;;5015237;28;210019;-68
2023/04/23 09:55:36;;;;;;;14.80;7.32;;;19.90;99.90;;;;;;5067959;28;20063;-69
2023/04/23 09:58:03;;;;;;;14.45;7.05;;;20.70;99.90;;;;;;4982375;28;213762;-68
2023/04/23 10:00:38;;;;;;;15.02;7.32;;;20.20;99.80;;;;;;5049383;28;20068;-69
2023/04/23 10:03:06;;;;;;;14.65;7.25;;;20.50;99.40;;;;;;4981771;28;214102;-68
2023/04/23 10:05:40;;;;;;;12.88;6.43;;;20.50;99.90;;;;;;5073565;28;20074;-68
2023/04/23 10:08:07;;;;;;;15.68;6.93;;;20.20;99.60;;;;;;4980993;28;209977;-69
2023/04/23 10:10:34;;;;;;;18.83;7.45;;;20.40;98.10;;;;;;5055127;28;20057;-68
2023/04/23 10:13:01;;;;;;;13.57;5.90;;;20.60;99.70;;;;;;5002078;28;206724;-68
2023/04/23 10:15:27;;;;;;;14.70;6.32;;;20.30;98.80;;;;;;5057887;28;20056;-68
2023/04/23 10:17:54;;;;;;;12.95;5.97;;;20.60;99.70;;;;;;4998375;28;206335;-68
2023/04/23 10:20:24;;;;;;;13.93;5.95;;;20.40;98.70;;;;;;5051035;28;20052;-68
2023/04/23 10:22:53;;;;;;;15.02;6.60;;;19.80;99.00;;;;;;4991472;28;210253;-69
2023/04/23 10:25:21;;;;;;;12.95;6.03;;;20.20;98.80;;;;;;5066477;28;22108;-68
2023/04/23 10:27:51;;;;;;;15.55;6.60;;;19.90;98.50;;;;;;5024336;28;216360;-68
2023/04/23 10:30:19;;;;;;;13.77;6.03;;;20.40;98.40;;;;;;5071740;28;20059;-68
2023/04/23 10:32:47;;;;;;;14.52;6.03;;;20.60;98.10;;;;;;4997855;28;213478;-68
2023/04/23 10:35:13;;;;;;;12.85;5.63;;;21.20;98.50;;;;;;5071174;28;20082;-68
2023/04/23 10:37:40;;;;;;;13.88;5.82;;;21.60;98.30;;;;;;4994858;28;212463;-68
2023/04/23 10:40:11;;;;;;;13.18;5.43;;;21.30;98.40;;;;;;5075439;28;20723;-67
2023/04/23 10:42:39;;;;;;;12.82;5.10;;;21.60;96.90;;;;;;5021839;28;216079;-69
2023/04/23 10:45:16;;;;;;;12.65;5.45;;;21.90;97.80;;;;;;5060953;28;20056;-67
2023/04/23 10:47:43;;;;;;;16.00;5.03;;;22.20;96.30;;;;;;5007833;28;175338;-68
2023/04/23 10:50:22;;;;;;;12.82;4.70;;;21.30;96.80;;;;;;5059819;28;20044;-67
2023/04/23 10:52:52;;;;;;;13.02;4.97;;;20.50;95.90;;;;;;5002441;28;212627;-67
2023/04/23 10:55:31;;;;;;;11.55;5.15;;;20.00;97.40;;;;;;5051693;28;20546;-68
2023/04/23 10:58:07;;;;;;;11.73;5.30;;;20.30;97.30;;;;;;4975722;28;216233;-67
2023/04/23 11:00:44;;;;;;;13.65;4.70;;;20.80;97.80;;;;;;5079495;28;20068;-67
2023/04/23 11:03:30;;;;;;;13.43;4.40;;;21.50;96.60;;;;;;5015056;28;216601;-67
2023/04/23 11:06:01;;;;;;;11.23;4.30;;;21.70;95.60;;;;;;5069875;28;20071;-68
2023/04/23 11:08:30;;;;;;;10.98;4.35;;;20.60;96.60;;;;;;5024735;28;242511;-67
2023/04/23 11:10:58;;;;;;;13.73;4.55;;;20.40;97.30;;;;;;5081433;28;20094;-67
2023/04/23 11:13:26;;;;;;;11.35;3.90;;;20.60;97.00;;;;;;5019278;28;189641;-68
2023/04/23 11:16:20;;;;;;;9.80;3.50;;;20.80;96.50;;;;;;5074698;28;20048;-67
2023/04/23 11:19:02;;;;;;;10.98;3.50;;;20.50;95.00;;;;;;5008918;28;20051;-69
2023/04/23 11:21:58;;;;;;;11.80;3.78;;;20.30;95.50;;;;;;5025311;28;213708;-67
2023/04/23 11:24:29;;;;;;;9.45;3.40;;;20.00;95.80;;;;;;5071175;28;20061;-68
2023/04/23 11:26:56;;;;;;;11.43;3.15;;;20.60;96.70;;;;;;5005791;28;222792;-68
2023/04/23 11:29:24;;;;;;;10.73;2.78;;;20.30;95.10;;;;;;5066573;28;20048;-68
2023/04/23 11:31:51;;;;;;;10.85;2.63;;;19.80;95.80;;;;;;5018254;28;209127;-67
2023/04/23 11:34:17;;;;;;;9.45;2.45;;;19.90;95.80;;;;;;5056204;28;20045;-66
2023/04/23 11:36:45;;;;;;;12.05;2.65;;;19.90;95.90;;;;;;5004139;28;212987;-67
2023/04/23 11:39:12;;;;;;;9.23;2.42;;;19.90;95.40;;;;;;5065938;28;20052;-66
2023/04/23 11:41:38;;;;;;;9.30;2.80;;;20.10;96.10;;;;;;5037538;27;206340;-67
2023/04/23 11:44:05;;;;;;;9.23;2.58;;;20.90;96.00;;;;;;5047985;28;20055;-67
2023/04/23 11:46:31;;;;;;;9.00;2.40;;;21.00;95.40;;;;;;4993773;28;206691;-66
2023/04/23 11:49:00;;;;;;;9.25;2.30;;;20.30;94.20;;;;;;5056834;28;20049;-66
2023/04/23 11:51:27;;;;;;;10.32;2.20;;;20.70;94.80;;;;;;4998476;28;226999;-67
2023/04/23 11:53:53;;;;;;;10.85;1.92;;;20.70;94.30;;;;;;5070534;28;20060;-68
2023/04/23 11:56:19;;;;;;;7.88;2.25;;;20.20;94.60;;;;;;4981944;28;242489;-67
2023/04/23 11:58:45;;;;;;;9.20;2.47;;;20.20;94.30;;;;;;5065559;28;20059;-67
2023/04/23 12:01:12;;;;;;;10.45;2.13;;;20.00;94.80;;;;;;5018240;28;215140;-68
2023/04/23 12:03:38;;;;;;;9.52;2.40;;;19.80;94.80;;;;;;5078607;28;20067;-68
2023/04/23 12:06:05;;;;;;;8.50;2.13;;;19.50;95.00;;;;;;5057422;28;223492;-66
2023/04/23 12:08:41;;;;;;;9.82;2.53;;;19.80;95.10;;;;;;5051226;28;206086;-68
2023/04/23 12:11:10;;;;;;;8.25;2.03;;;20.40;94.50;;;;;;5025899;28;214551;-67
2023/04/23 12:13:39;;;;;;;11.40;2.67;;;21.10;95.10;;;;;;5069307;28;20048;-67
2023/04/23 12:16:06;;;;;;;9.52;2.22;;;21.30;94.50;;;;;;5046347;28;217347;-67
2023/04/23 12:18:41;;;;;;;8.52;2.00;;;21.40;94.00;;;;;;5047882;28;260673;-66
2023/04/23 12:21:12;;;;;;;9.93;2.00;;;20.90;93.60;;;;;;5015652;28;221918;-67
2023/04/23 12:23:40;;;;;;;10.85;2.10;;;20.70;94.30;;;;;;5067617;28;20675;-67
2023/04/23 12:26:10;;;;;;;9.88;2.10;;;20.60;94.20;;;;;;5047540;28;220498;-67
2023/04/23 12:28:50;;;;;;;7.85;1.88;;;20.20;94.10;;;;;;5026709;28;20075;-67